sensor_id;sensor_type;location;lat;lon;timestamp;P1;durP1;ratioP1;P2;durP2;ratioP2
49840;SDS011;35738;49.890;5.930;2023-07-02T02:48:11;28.15;;;13.85;;
49840;SDS011;35738;49.890;5.930;2023-07-02T02:50:42;29.42;;;13.93;;
49840;SDS011;35738;49.890;5.930;2023-07-02T02:53:09;27.27;;;14.55;;
49840;SDS011;35738;49.890;5.930;2023-07-02T02:55:36;30.25;;;15.23;;
49840;SDS011;35738;49.890;5.930;2023-07-02T02:58:03;27.13;;;14.05;;
49840;SDS011;35738;49.890;5.930;2023-07-02T03:00:30;28.77;;;14.75;;
49840;SDS011;35738;49.890;5.930;2023-07-02T03:02:57;29.13;;;15.63;;
49840;SDS011;35738;49.890;5.930;2023-07-02T03:05:24;29.00;;;15.38;;
49840;SDS011;35738;49.890;5.930;2023-07-02T03:07:54;30.05;;;15.45;;
49840;SDS011;35738;49.890;5.930;2023-07-02T03:10:20;32.65;;;15.57;;
49840;SDS011;35738;49.890;5.930;2023-07-02T03:12:47;31.95;;;14.68;;
49840;SDS011;35738;49.890;5.930;2023-07-02T03:15:14;34.38;;;15.30;;
49840;SDS011;35738;49.890;5.930;2023-07-02T03:17:41;31.27;;;15.32;;
49840;SDS011;35738;49.890;5.930;2023-07-02T03:20:08;35.15;;;15.90;;
49840;SDS011;35738;49.890;5.930;2023-07-02T03:22:35;31.77;;;15.45;;
49840;SDS011;35738;49.890;5.930;2023-07-02T03:25:02;30.55;;;15.50;;
49840;SDS011;35738;49.890;5.930;2023-07-02T03:27:29;34.70;;;16.77;;
49840;SDS011;35738;49.890;5.930;2023-07-02T03:29:56;35.45;;;16.88;;
49840;SDS011;35738;49.890;5.930;2023-07-02T03:32:23;37.13;;;17.25;;
49840;SDS011;35738;49.890;5.930;2023-07-02T03:34:49;34.15;;;17.13;;
49840;SDS011;35738;49.890;5.930;2023-07-02T03:37:16;38.25;;;18.08;;
49840;SDS011;35738;49.890;5.930;2023-07-02T03:39:43;36.88;;;16.33;;
49840;SDS011;35738;49.890;5.930;2023-07-02T03:42:09;43.13;;;18.33;;
49840;SDS011;35738;49.890;5.930;2023-07-02T03:44:36;35.30;;;17.40;;
49840;SDS011;35738;49.890;5.930;2023-07-02T03:47:03;35.78;;;18.25;;
49840;SDS011;35738;49.890;5.930;2023-07-02T03:49:30;38.80;;;18.75;;
49840;SDS011;35738;49.890;5.930;2023-07-02T03:51:57;37.10;;;18.45;;
49840;SDS011;35738;49.890;5.930;2023-07-02T03:54:24;37.38;;;18.45;;
49840;SDS011;35738;49.890;5.930;2023-07-02T03:56:50;35.40;;;17.85;;
49840;SDS011;35738;49.890;5.930;2023-07-02T03:59:17;41.58;;;18.98;;
49840;SDS011;35738;49.890;5.930;2023-07-02T04:01:44;37.83;;;18.35;;
49840;SDS011;35738;49.890;5.930;2023-07-02T04:04:11;39.75;;;18.50;;
49840;SDS011;35738;49.890;5.930;2023-07-02T04:06:38;41.28;;;19.80;;
49840;SDS011;35738;49.890;5.930;2023-07-02T04:09:05;39.75;;;19.50;;
49840;SDS011;35738;49.890;5.930;2023-07-02T04:11:32;48.95;;;20.48;;
49840;SDS011;35738;49.890;5.930;2023-07-02T04:13:59;45.63;;;20.25;;
49840;SDS011;35738;49.890;5.930;2023-07-02T04:16:25;45.63;;;19.90;;
49840;SDS011;35738;49.890;5.930;2023-07-02T04:18:52;41.17;;;20.05;;
49840;SDS011;35738;49.890;5.930;2023-07-02T04:21:19;46.40;;;20.35;;
49840;SDS011;35738;49.890;5.930;2023-07-02T04:23:46;44.13;;;20.88;;
49840;SDS011;35738;49.890;5.930;2023-07-02T04:26:14;39.35;;;20.98;;
49840;SDS011;35738;49.890;5.930;2023-07-02T04:29:01;51.03;;;22.33;;
49840;SDS011;35738;49.890;5.930;2023-07-02T04:31:29;46.53;;;21.95;;
49840;SDS011;35738;49.890;5.930;2023-07-02T04:33:56;44.90;;;20.60;;
49840;SDS011;35738;49.890;5.930;2023-07-02T04:36:23;45.78;;;22.77;;
49840;SDS011;35738;49.890;5.930;2023-07-02T04:38:50;42.22;;;21.60;;
49840;SDS011;35738;49.890;5.930;2023-07-02T04:41:17;43.20;;;21.65;;
49840;SDS011;35738;49.890;5.930;2023-07-02T04:43:45;44.03;;;21.27;;
49840;SDS011;35738;49.890;5.930;2023-07-02T04:46:11;44.67;;;20.92;;
49840;SDS011;35738;49.890;5.930;2023-07-02T04:48:39;52.42;;;22.10;;
49840;SDS011;35738;49.890;5.930;2023-07-02T04:51:05;47.35;;;22.83;;
49840;SDS011;35738;49.890;5.930;2023-07-02T04:53:32;42.08;;;21.38;;
49840;SDS011;35738;49.890;5.930;2023-07-02T04:55:58;47.28;;;21.65;;
49840;SDS011;35738;49.890;5.930;2023-07-02T04:58:26;52.85;;;22.10;;
49840;SDS011;35738;49.890;5.930;2023-07-02T05:00:53;45.25;;;21.42;;
49840;SDS011;35738;49.890;5.930;2023-07-02T05:03:20;43.13;;;22.27;;
49840;SDS011;35738;49.890;5.930;2023-07-02T05:05:46;42.50;;;22.02;;
49840;SDS011;35738;49.890;5.930;2023-07-02T05:08:14;47.42;;;22.58;;
49840;SDS011;35738;49.890;5.930;2023-07-02T05:10:41;47.65;;;23.00;;
49840;SDS011;35738;49.890;5.930;2023-07-02T05:13:07;46.95;;;23.17;;
49840;SDS011;35738;49.890;5.930;2023-07-02T05:15:34;49.28;;;23.33;;
49840;SDS011;35738;49.890;5.930;2023-07-02T05:18:00;45.08;;;22.33;;
49840;SDS011;35738;49.890;5.930;2023-07-02T05:20:27;50.75;;;23.05;;
49840;SDS011;35738;49.890;5.930;2023-07-02T05:22:54;48.95;;;23.67;;
49840;SDS011;35738;49.890;5.930;2023-07-02T05:25:21;49.83;;;22.92;;
49840;SDS011;35738;49.890;5.930;2023-07-02T05:27:47;47.13;;;24.63;;
49840;SDS011;35738;49.890;5.930;2023-07-02T05:30:14;51.33;;;23.25;;
49840;SDS011;35738;49.890;5.930;2023-07-02T05:32:42;44.63;;;23.23;;
49840;SDS011;35738;49.890;5.930;2023-07-02T05:35:09;44.75;;;23.35;;
49840;SDS011;35738;49.890;5.930;2023-07-02T05:37:35;46.58;;;23.40;;
49840;SDS011;35738;49.890;5.930;2023-07-02T05:40:02;50.58;;;23.38;;
49840;SDS011;35738;49.890;5.930;2023-07-02T05:42:29;51.03;;;22.65;;
49840;SDS011;35738;49.890;5.930;2023-07-02T05:44:56;46.15;;;22.52;;
49840;SDS011;35738;49.890;5.930;2023-07-02T05:47:22;55.03;;;22.92;;
49840;SDS011;35738;49.890;5.930;2023-07-02T05:49:49;59.72;;;28.40;;
49840;SDS011;35738;49.890;5.930;2023-07-02T05:52:16;49.53;;;23.60;;
49840;SDS011;35738;49.890;5.930;2023-07-02T05:54:42;48.70;;;22.80;;
49840;SDS011;35738;49.890;5.930;2023-07-02T05:57:09;48.63;;;23.05;;
49840;SDS011;35738;49.890;5.930;2023-07-02T05:59:37;45.03;;;22.55;;
49840;SDS011;35738;49.890;5.930;2023-07-02T06:02:04;46.55;;;22.77;;
49840;SDS011;35738;49.890;5.930;2023-07-02T06:04:30;47.05;;;23.33;;
49840;SDS011;35738;49.890;5.930;2023-07-02T06:06:57;45.55;;;22.05;;
49840;SDS011;35738;49.890;5.930;2023-07-02T06:09:26;47.53;;;22.15;;
49840;SDS011;35738;49.890;5.930;2023-07-02T06:11:53;48.33;;;21.75;;
49840;SDS011;35738;49.890;5.930;2023-07-02T06:14:20;44.03;;;21.73;;
49840;SDS011;35738;49.890;5.930;2023-07-02T06:16:46;44.63;;;21.33;;
49840;SDS011;35738;49.890;5.930;2023-07-02T06:19:13;42.30;;;21.95;;
49840;SDS011;35738;49.890;5.930;2023-07-02T06:21:40;41.38;;;21.33;;
49840;SDS011;35738;49.890;5.930;2023-07-02T06:24:08;45.97;;;21.52;;
49840;SDS011;35738;49.890;5.930;2023-07-02T06:26:34;43.75;;;22.05;;
49840;SDS011;35738;49.890;5.930;2023-07-02T06:29:01;45.28;;;21.55;;
49840;SDS011;35738;49.890;5.930;2023-07-02T06:31:27;41.92;;;21.98;;
49840;SDS011;35738;49.890;5.930;2023-07-02T06:33:54;42.65;;;21.15;;
49840;SDS011;35738;49.890;5.930;2023-07-02T06:36:21;45.65;;;21.60;;
49840;SDS011;35738;49.890;5.930;2023-07-02T06:38:48;48.45;;;22.45;;
49840;SDS011;35738;49.890;5.930;2023-07-02T06:41:14;44.88;;;21.85;;
49840;SDS011;35738;49.890;5.930;2023-07-02T06:43:42;39.30;;;20.80;;
49840;SDS011;35738;49.890;5.930;2023-07-02T06:46:10;41.53;;;21.15;;
49840;SDS011;35738;49.890;5.930;2023-07-02T06:48:54;41.50;;;21.40;;
49840;SDS011;35738;49.890;5.930;2023-07-02T06:51:39;44.65;;;21.02;;
49840;SDS011;35738;49.890;5.930;2023-07-02T06:54:06;44.15;;;21.25;;
49840;SDS011;35738;49.890;5.930;2023-07-02T06:56:32;40.38;;;20.73;;
49840;SDS011;35738;49.890;5.930;2023-07-02T06:59:00;38.65;;;20.35;;
49840;SDS011;35738;49.890;5.930;2023-07-02T07:01:27;43.97;;;20.95;;
49840;SDS011;35738;49.890;5.930;2023-07-02T07:04:00;41.13;;;21.77;;
49840;SDS011;35738;49.890;5.930;2023-07-02T07:06:27;41.38;;;20.65;;
49840;SDS011;35738;49.890;5.930;2023-07-02T07:08:54;43.60;;;21.23;;
49840;SDS011;35738;49.890;5.930;2023-07-02T07:11:20;42.97;;;20.67;;
49840;SDS011;35738;49.890;5.930;2023-07-02T07:13:47;45.35;;;20.92;;
49840;SDS011;35738;49.890;5.930;2023-07-02T07:16:14;39.10;;;20.40;;
49840;SDS011;35738;49.890;5.930;2023-07-02T07:18:41;41.55;;;21.38;;
49840;SDS011;35738;49.890;5.930;2023-07-02T07:21:10;38.53;;;20.73;;
49840;SDS011;35738;49.890;5.930;2023-07-02T07:23:37;40.78;;;19.77;;
49840;SDS011;35738;49.890;5.930;2023-07-02T07:26:03;39.63;;;20.58;;
49840;SDS011;35738;49.890;5.930;2023-07-02T07:28:30;42.17;;;21.00;;
49840;SDS011;35738;49.890;5.930;2023-07-02T07:30:57;43.22;;;21.30;;
49840;SDS011;35738;49.890;5.930;2023-07-02T07:33:23;43.10;;;21.15;;
49840;SDS011;35738;49.890;5.930;2023-07-02T07:35:50;42.72;;;21.33;;
49840;SDS011;35738;49.890;5.930;2023-07-02T07:38:17;43.88;;;21.80;;
49840;SDS011;35738;49.890;5.930;2023-07-02T07:40:44;43.63;;;21.23;;
49840;SDS011;35738;49.890;5.930;2023-07-02T07:43:11;43.28;;;21.15;;
49840;SDS011;35738;49.890;5.930;2023-07-02T07:45:38;42.50;;;21.58;;
49840;SDS011;35738;49.890;5.930;2023-07-02T07:48:05;40.75;;;20.67;;
49840;SDS011;35738;49.890;5.930;2023-07-02T07:50:32;42.47;;;21.25;;
49840;SDS011;35738;49.890;5.930;2023-07-02T07:52:59;38.25;;;20.60;;
49840;SDS011;35738;49.890;5.930;2023-07-02T07:55:26;42.55;;;20.58;;
49840;SDS011;35738;49.890;5.930;2023-07-02T07:57:52;36.83;;;20.48;;
49840;SDS011;35738;49.890;5.930;2023-07-02T08:00:19;42.53;;;20.95;;
49840;SDS011;35738;49.890;5.930;2023-07-02T08:02:46;45.00;;;21.17;;
49840;SDS011;35738;49.890;5.930;2023-07-02T08:05:13;45.05;;;21.58;;
49840;SDS011;35738;49.890;5.930;2023-07-02T08:07:40;43.47;;;21.85;;
49840;SDS011;35738;49.890;5.930;2023-07-02T08:10:11;41.40;;;21.05;;
49840;SDS011;35738;49.890;5.930;2023-07-02T08:12:38;38.47;;;20.05;;
49840;SDS011;35738;49.890;5.930;2023-07-02T08:15:05;36.50;;;19.70;;
49840;SDS011;35738;49.890;5.930;2023-07-02T08:17:32;39.78;;;20.00;;
49840;SDS011;35738;49.890;5.930;2023-07-02T08:19:59;40.53;;;20.02;;
49840;SDS011;35738;49.890;5.930;2023-07-02T08:22:26;42.40;;;19.33;;
49840;SDS011;35738;49.890;5.930;2023-07-02T08:24:53;37.63;;;19.48;;
49840;SDS011;35738;49.890;5.930;2023-07-02T08:27:21;34.35;;;18.73;;
49840;SDS011;35738;49.890;5.930;2023-07-02T08:29:47;34.45;;;19.05;;
49840;SDS011;35738;49.890;5.930;2023-07-02T08:32:15;35.25;;;18.63;;
49840;SDS011;35738;49.890;5.930;2023-07-02T08:34:42;35.42;;;18.45;;
49840;SDS011;35738;49.890;5.930;2023-07-02T08:37:09;38.70;;;18.73;;
49840;SDS011;35738;49.890;5.930;2023-07-02T08:39:37;35.72;;;18.40;;
49840;SDS011;35738;49.890;5.930;2023-07-02T08:42:06;37.65;;;18.05;;
49840;SDS011;35738;49.890;5.930;2023-07-02T08:44:33;34.63;;;18.15;;
49840;SDS011;35738;49.890;5.930;2023-07-02T08:47:02;38.55;;;17.25;;
49840;SDS011;35738;49.890;5.930;2023-07-02T08:49:36;32.65;;;17.80;;
49840;SDS011;35738;49.890;5.930;2023-07-02T08:52:03;28.17;;;15.85;;
49840;SDS011;35738;49.890;5.930;2023-07-02T08:54:29;31.60;;;17.13;;
49840;SDS011;35738;49.890;5.930;2023-07-02T08:56:56;31.02;;;16.58;;
49840;SDS011;35738;49.890;5.930;2023-07-02T08:59:23;34.78;;;16.38;;
49840;SDS011;35738;49.890;5.930;2023-07-02T09:01:50;32.95;;;17.55;;
49840;SDS011;35738;49.890;5.930;2023-07-02T09:04:24;32.58;;;15.57;;
49840;SDS011;35738;49.890;5.930;2023-07-02T09:09:31;28.92;;;15.98;;
49840;SDS011;35738;49.890;5.930;2023-07-02T09:11:58;30.70;;;15.85;;
49840;SDS011;35738;49.890;5.930;2023-07-02T09:14:29;33.85;;;16.55;;
49840;SDS011;35738;49.890;5.930;2023-07-02T09:17:05;28.92;;;15.55;;
49840;SDS011;35738;49.890;5.930;2023-07-02T09:19:33;32.25;;;17.08;;
49840;SDS011;35738;49.890;5.930;2023-07-02T09:22:01;31.52;;;15.90;;
49840;SDS011;35738;49.890;5.930;2023-07-02T09:24:29;27.35;;;15.25;;
49840;SDS011;35738;49.890;5.930;2023-07-02T09:26:58;27.73;;;15.82;;
49840;SDS011;35738;49.890;5.930;2023-07-02T09:31:59;30.05;;;15.63;;
49840;SDS011;35738;49.890;5.930;2023-07-02T09:34:37;30.75;;;16.27;;
49840;SDS011;35738;49.890;5.930;2023-07-02T09:37:05;28.70;;;15.40;;
49840;SDS011;35738;49.890;5.930;2023-07-02T09:39:33;34.50;;;16.85;;
49840;SDS011;35738;49.890;5.930;2023-07-02T09:42:03;31.90;;;15.02;;
49840;SDS011;35738;49.890;5.930;2023-07-02T09:44:33;28.55;;;15.80;;
49840;SDS011;35738;49.890;5.930;2023-07-02T09:47:01;31.10;;;15.68;;
49840;SDS011;35738;49.890;5.930;2023-07-02T09:49:33;28.98;;;15.60;;
49840;SDS011;35738;49.890;5.930;2023-07-02T09:52:03;27.90;;;15.18;;
49840;SDS011;35738;49.890;5.930;2023-07-02T09:54:31;29.60;;;15.80;;
49840;SDS011;35738;49.890;5.930;2023-07-02T09:56:58;27.33;;;15.52;;
49840;SDS011;35738;49.890;5.930;2023-07-02T09:59:26;30.58;;;15.35;;
49840;SDS011;35738;49.890;5.930;2023-07-02T10:01:53;32.05;;;16.40;;
49840;SDS011;35738;49.890;5.930;2023-07-02T10:04:20;29.40;;;14.68;;
49840;SDS011;35738;49.890;5.930;2023-07-02T10:06:55;26.95;;;13.95;;
49840;SDS011;35738;49.890;5.930;2023-07-02T10:09:43;31.23;;;15.88;;
49840;SDS011;35738;49.890;5.930;2023-07-02T10:12:17;28.08;;;15.48;;
49840;SDS011;35738;49.890;5.930;2023-07-02T10:14:45;30.23;;;15.13;;
49840;SDS011;35738;49.890;5.930;2023-07-02T10:19:58;32.55;;;16.52;;
49840;SDS011;35738;49.890;5.930;2023-07-02T10:22:26;30.38;;;16.85;;
49840;SDS011;35738;49.890;5.930;2023-07-02T10:24:57;32.55;;;16.73;;
49840;SDS011;35738;49.890;5.930;2023-07-02T10:27:36;31.10;;;16.35;;
49840;SDS011;35738;49.890;5.930;2023-07-02T10:30:07;27.88;;;15.88;;
49840;SDS011;35738;49.890;5.930;2023-07-02T10:32:36;29.58;;;16.58;;
49840;SDS011;35738;49.890;5.930;2023-07-02T10:35:14;30.42;;;16.55;;
49840;SDS011;35738;49.890;5.930;2023-07-02T10:37:44;31.13;;;17.25;;
49840;SDS011;35738;49.890;5.930;2023-07-02T10:40:11;28.48;;;15.98;;
49840;SDS011;35738;49.890;5.930;2023-07-02T10:42:45;35.90;;;17.27;;
49840;SDS011;35738;49.890;5.930;2023-07-02T10:45:16;34.70;;;17.15;;
49840;SDS011;35738;49.890;5.930;2023-07-02T10:47:44;32.63;;;16.92;;
49840;SDS011;35738;49.890;5.930;2023-07-02T10:50:20;33.17;;;16.40;;
49840;SDS011;35738;49.890;5.930;2023-07-02T10:52:50;35.13;;;17.00;;
49840;SDS011;35738;49.890;5.930;2023-07-02T10:55:20;30.05;;;16.02;;
49840;SDS011;35738;49.890;5.930;2023-07-02T10:58:04;29.88;;;16.17;;
49840;SDS011;35738;49.890;5.930;2023-07-02T11:00:46;35.08;;;17.35;;
49840;SDS011;35738;49.890;5.930;2023-07-02T11:03:17;32.58;;;16.67;;
49840;SDS011;35738;49.890;5.930;2023-07-02T11:05:49;27.95;;;15.13;;
49840;SDS011;35738;49.890;5.930;2023-07-02T11:08:18;33.83;;;16.23;;
49840;SDS011;35738;49.890;5.930;2023-07-02T11:10:47;31.70;;;16.60;;
49840;SDS011;35738;49.890;5.930;2023-07-02T11:13:18;33.47;;;16.58;;
49840;SDS011;35738;49.890;5.930;2023-07-02T11:15:46;30.58;;;15.30;;
49840;SDS011;35738;49.890;5.930;2023-07-02T11:18:15;29.70;;;16.40;;
49840;SDS011;35738;49.890;5.930;2023-07-02T11:20:44;28.13;;;15.60;;
49840;SDS011;35738;49.890;5.930;2023-07-02T11:23:19;30.90;;;15.63;;
49840;SDS011;35738;49.890;5.930;2023-07-02T11:28:25;30.15;;;15.85;;
49840;SDS011;35738;49.890;5.930;2023-07-02T11:30:53;33.50;;;16.08;;
49840;SDS011;35738;49.890;5.930;2023-07-02T11:33:20;31.25;;;15.63;;
49840;SDS011;35738;49.890;5.930;2023-07-02T11:35:58;28.13;;;15.93;;
49840;SDS011;35738;49.890;5.930;2023-07-02T11:38:25;31.38;;;16.08;;
49840;SDS011;35738;49.890;5.930;2023-07-02T11:40:52;29.52;;;16.02;;
49840;SDS011;35738;49.890;5.930;2023-07-02T11:43:19;30.45;;;15.52;;
49840;SDS011;35738;49.890;5.930;2023-07-02T11:45:46;27.38;;;15.32;;
49840;SDS011;35738;49.890;5.930;2023-07-02T11:48:13;29.70;;;15.70;;
49840;SDS011;35738;49.890;5.930;2023-07-02T11:50:39;26.45;;;14.85;;
49840;SDS011;35738;49.890;5.930;2023-07-02T11:53:06;28.50;;;15.73;;
49840;SDS011;35738;49.890;5.930;2023-07-02T11:55:33;26.55;;;13.65;;
49840;SDS011;35738;49.890;5.930;2023-07-02T11:58:00;26.48;;;13.07;;
49840;SDS011;35738;49.890;5.930;2023-07-02T12:00:27;22.75;;;13.25;;
49840;SDS011;35738;49.890;5.930;2023-07-02T12:02:53;24.30;;;12.82;;
49840;SDS011;35738;49.890;5.930;2023-07-02T12:05:20;25.20;;;14.32;;
49840;SDS011;35738;49.890;5.930;2023-07-02T12:07:47;28.85;;;14.30;;
49840;SDS011;35738;49.890;5.930;2023-07-02T12:10:13;25.00;;;14.88;;
49840;SDS011;35738;49.890;5.930;2023-07-02T12:12:40;26.05;;;13.57;;
49840;SDS011;35738;49.890;5.930;2023-07-02T12:15:07;26.67;;;14.75;;
49840;SDS011;35738;49.890;5.930;2023-07-02T12:17:34;26.58;;;13.57;;
49840;SDS011;35738;49.890;5.930;2023-07-02T12:20:01;24.15;;;13.60;;
49840;SDS011;35738;49.890;5.930;2023-07-02T12:22:27;28.20;;;14.65;;
49840;SDS011;35738;49.890;5.930;2023-07-02T12:24:54;23.48;;;13.55;;
49840;SDS011;35738;49.890;5.930;2023-07-02T12:27:22;28.30;;;14.95;;
49840;SDS011;35738;49.890;5.930;2023-07-02T12:29:49;25.85;;;13.73;;
49840;SDS011;35738;49.890;5.930;2023-07-02T12:32:16;23.02;;;13.13;;
49840;SDS011;35738;49.890;5.930;2023-07-02T12:34:42;27.60;;;13.85;;
49840;SDS011;35738;49.890;5.930;2023-07-02T12:37:09;26.48;;;14.18;;
49840;SDS011;35738;49.890;5.930;2023-07-02T12:39:36;27.05;;;14.50;;
49840;SDS011;35738;49.890;5.930;2023-07-02T12:42:02;26.77;;;14.75;;
49840;SDS011;35738;49.890;5.930;2023-07-02T12:44:29;28.40;;;15.38;;
49840;SDS011;35738;49.890;5.930;2023-07-02T12:46:56;30.77;;;14.57;;
49840;SDS011;35738;49.890;5.930;2023-07-02T12:49:23;23.73;;;13.63;;
49840;SDS011;35738;49.890;5.930;2023-07-02T12:51:50;24.30;;;13.63;;
49840;SDS011;35738;49.890;5.930;2023-07-02T12:54:16;24.65;;;13.85;;
49840;SDS011;35738;49.890;5.930;2023-07-02T12:56:43;27.98;;;13.98;;
49840;SDS011;35738;49.890;5.930;2023-07-02T12:59:10;25.15;;;13.95;;
49840;SDS011;35738;49.890;5.930;2023-07-02T13:01:36;28.20;;;13.45;;
49840;SDS011;35738;49.890;5.930;2023-07-02T13:04:03;24.33;;;13.25;;
49840;SDS011;35738;49.890;5.930;2023-07-02T13:06:30;27.30;;;13.80;;
49840;SDS011;35738;49.890;5.930;2023-07-02T13:09:06;22.67;;;13.85;;
49840;SDS011;35738;49.890;5.930;2023-07-02T13:11:34;25.60;;;13.18;;
49840;SDS011;35738;49.890;5.930;2023-07-02T13:14:01;27.00;;;13.60;;
49840;SDS011;35738;49.890;5.930;2023-07-02T13:16:28;25.30;;;13.85;;
49840;SDS011;35738;49.890;5.930;2023-07-02T13:18:55;25.23;;;13.55;;
49840;SDS011;35738;49.890;5.930;2023-07-02T13:21:23;24.77;;;12.95;;
49840;SDS011;35738;49.890;5.930;2023-07-02T13:23:49;27.13;;;12.98;;
49840;SDS011;35738;49.890;5.930;2023-07-02T13:26:16;29.60;;;16.40;;
49840;SDS011;35738;49.890;5.930;2023-07-02T13:28:43;26.42;;;13.77;;
49840;SDS011;35738;49.890;5.930;2023-07-02T13:31:11;26.70;;;14.40;;
49840;SDS011;35738;49.890;5.930;2023-07-02T13:33:38;28.52;;;14.05;;
49840;SDS011;35738;49.890;5.930;2023-07-02T13:36:06;23.48;;;12.90;;
49840;SDS011;35738;49.890;5.930;2023-07-02T13:38:33;27.45;;;12.65;;
49840;SDS011;35738;49.890;5.930;2023-07-02T13:40:59;23.75;;;13.25;;
49840;SDS011;35738;49.890;5.930;2023-07-02T13:43:27;24.13;;;12.15;;
49840;SDS011;35738;49.890;5.930;2023-07-02T13:45:54;21.25;;;12.15;;
49840;SDS011;35738;49.890;5.930;2023-07-02T13:48:20;25.13;;;12.82;;
49840;SDS011;35738;49.890;5.930;2023-07-02T13:50:47;20.75;;;11.70;;
49840;SDS011;35738;49.890;5.930;2023-07-02T13:53:14;22.95;;;12.48;;
49840;SDS011;35738;49.890;5.930;2023-07-02T13:55:40;22.02;;;11.50;;
49840;SDS011;35738;49.890;5.930;2023-07-02T13:58:08;20.75;;;11.77;;
49840;SDS011;35738;49.890;5.930;2023-07-02T14:00:35;20.33;;;11.27;;
49840;SDS011;35738;49.890;5.930;2023-07-02T14:03:02;22.65;;;11.48;;
49840;SDS011;35738;49.890;5.930;2023-07-02T14:05:29;23.17;;;10.93;;
49840;SDS011;35738;49.890;5.930;2023-07-02T14:07:56;23.70;;;12.10;;
49840;SDS011;35738;49.890;5.930;2023-07-02T14:10:23;22.17;;;11.48;;
49840;SDS011;35738;49.890;5.930;2023-07-02T14:12:51;23.35;;;11.40;;
49840;SDS011;35738;49.890;5.930;2023-07-02T14:15:18;21.95;;;11.50;;
49840;SDS011;35738;49.890;5.930;2023-07-02T14:17:45;22.27;;;11.85;;
49840;SDS011;35738;49.890;5.930;2023-07-02T14:20:12;21.83;;;11.38;;
49840;SDS011;35738;49.890;5.930;2023-07-02T14:22:39;20.58;;;11.30;;
49840;SDS011;35738;49.890;5.930;2023-07-02T14:25:06;21.17;;;11.85;;
49840;SDS011;35738;49.890;5.930;2023-07-02T14:27:33;26.70;;;15.27;;
49840;SDS011;35738;49.890;5.930;2023-07-02T14:30:00;23.95;;;11.57;;
49840;SDS011;35738;49.890;5.930;2023-07-02T14:32:28;20.58;;;11.30;;
49840;SDS011;35738;49.890;5.930;2023-07-02T14:34:55;22.83;;;10.80;;
49840;SDS011;35738;49.890;5.930;2023-07-02T14:37:21;21.17;;;11.48;;
49840;SDS011;35738;49.890;5.930;2023-07-02T14:39:48;23.08;;;10.95;;
49840;SDS011;35738;49.890;5.930;2023-07-02T14:42:31;23.88;;;11.43;;
49840;SDS011;35738;49.890;5.930;2023-07-02T14:44:58;20.83;;;10.50;;
49840;SDS011;35738;49.890;5.930;2023-07-02T14:47:25;23.05;;;11.20;;
49840;SDS011;35738;49.890;5.930;2023-07-02T14:49:51;20.92;;;10.73;;
49840;SDS011;35738;49.890;5.930;2023-07-02T14:52:18;17.30;;;9.73;;
49840;SDS011;35738;49.890;5.930;2023-07-02T14:54:45;20.63;;;10.25;;
49840;SDS011;35738;49.890;5.930;2023-07-02T14:57:12;20.00;;;10.35;;
49840;SDS011;35738;49.890;5.930;2023-07-02T14:59:39;19.73;;;10.88;;
49840;SDS011;35738;49.890;5.930;2023-07-02T15:02:12;22.10;;;10.60;;
49840;SDS011;35738;49.890;5.930;2023-07-02T15:04:39;18.48;;;10.43;;
49840;SDS011;35738;49.890;5.930;2023-07-02T15:07:07;20.40;;;10.30;;
49840;SDS011;35738;49.890;5.930;2023-07-02T15:09:34;20.50;;;10.45;;
49840;SDS011;35738;49.890;5.930;2023-07-02T15:12:01;18.58;;;9.70;;
49840;SDS011;35738;49.890;5.930;2023-07-02T15:14:27;21.45;;;10.32;;
49840;SDS011;35738;49.890;5.930;2023-07-02T15:16:54;19.92;;;10.32;;
49840;SDS011;35738;49.890;5.930;2023-07-02T15:19:21;17.10;;;9.52;;
49840;SDS011;35738;49.890;5.930;2023-07-02T15:21:51;20.83;;;10.32;;
49840;SDS011;35738;49.890;5.930;2023-07-02T15:24:17;20.63;;;9.32;;
49840;SDS011;35738;49.890;5.930;2023-07-02T15:26:50;19.40;;;9.75;;
49840;SDS011;35738;49.890;5.930;2023-07-02T15:29:16;20.55;;;10.10;;
49840;SDS011;35738;49.890;5.930;2023-07-02T15:31:43;19.85;;;10.07;;
49840;SDS011;35738;49.890;5.930;2023-07-02T15:34:12;24.00;;;10.45;;
49840;SDS011;35738;49.890;5.930;2023-07-02T15:36:45;26.08;;;10.73;;
49840;SDS011;35738;49.890;5.930;2023-07-02T15:39:12;22.85;;;10.48;;
49840;SDS011;35738;49.890;5.930;2023-07-02T15:41:39;19.40;;;10.25;;
49840;SDS011;35738;49.890;5.930;2023-07-02T15:44:08;22.45;;;10.48;;
49840;SDS011;35738;49.890;5.930;2023-07-02T15:46:35;21.33;;;10.77;;
49840;SDS011;35738;49.890;5.930;2023-07-02T15:49:02;21.38;;;10.23;;
49840;SDS011;35738;49.890;5.930;2023-07-02T15:51:29;21.77;;;10.60;;
49840;SDS011;35738;49.890;5.930;2023-07-02T15:54:03;19.50;;;10.57;;
49840;SDS011;35738;49.890;5.930;2023-07-02T15:56:33;19.05;;;10.43;;
49840;SDS011;35738;49.890;5.930;2023-07-02T15:59:01;19.95;;;10.40;;
49840;SDS011;35738;49.890;5.930;2023-07-02T16:01:29;20.73;;;10.60;;
49840;SDS011;35738;49.890;5.930;2023-07-02T16:03:58;22.55;;;10.20;;
49840;SDS011;35738;49.890;5.930;2023-07-02T16:06:27;20.52;;;9.98;;
49840;SDS011;35738;49.890;5.930;2023-07-02T16:08:59;21.23;;;10.10;;
49840;SDS011;35738;49.890;5.930;2023-07-02T16:11:32;21.88;;;10.15;;
49840;SDS011;35738;49.890;5.930;2023-07-02T16:14:01;21.70;;;10.50;;
49840;SDS011;35738;49.890;5.930;2023-07-02T16:16:34;20.42;;;10.45;;
49840;SDS011;35738;49.890;5.930;2023-07-02T16:19:02;20.10;;;10.20;;
49840;SDS011;35738;49.890;5.930;2023-07-02T16:21:30;21.25;;;10.30;;
49840;SDS011;35738;49.890;5.930;2023-07-02T16:23:56;21.08;;;10.40;;
49840;SDS011;35738;49.890;5.930;2023-07-02T16:26:23;22.35;;;10.73;;
49840;SDS011;35738;49.890;5.930;2023-07-02T16:28:50;21.27;;;10.18;;
49840;SDS011;35738;49.890;5.930;2023-07-02T16:31:17;19.83;;;9.27;;
49840;SDS011;35738;49.890;5.930;2023-07-02T16:33:46;20.00;;;9.77;;
49840;SDS011;35738;49.890;5.930;2023-07-02T16:36:13;21.83;;;9.77;;
49840;SDS011;35738;49.890;5.930;2023-07-02T16:38:42;19.92;;;9.70;;
49840;SDS011;35738;49.890;5.930;2023-07-02T16:41:10;19.83;;;9.55;;
49840;SDS011;35738;49.890;5.930;2023-07-02T16:43:37;22.00;;;10.00;;
49840;SDS011;35738;49.890;5.930;2023-07-02T16:46:04;19.95;;;9.40;;
49840;SDS011;35738;49.890;5.930;2023-07-02T16:48:31;24.38;;;10.13;;
49840;SDS011;35738;49.890;5.930;2023-07-02T16:50:58;19.77;;;9.32;;
49840;SDS011;35738;49.890;5.930;2023-07-02T16:53:26;17.00;;;9.30;;
49840;SDS011;35738;49.890;5.930;2023-07-02T16:56:00;18.20;;;8.98;;
49840;SDS011;35738;49.890;5.930;2023-07-02T16:58:28;18.83;;;9.15;;
49840;SDS011;35738;49.890;5.930;2023-07-02T17:01:01;17.77;;;9.50;;
49840;SDS011;35738;49.890;5.930;2023-07-02T17:03:29;17.10;;;9.25;;
49840;SDS011;35738;49.890;5.930;2023-07-02T17:06:00;20.77;;;9.75;;
49840;SDS011;35738;49.890;5.930;2023-07-02T17:08:32;18.42;;;8.25;;
49840;SDS011;35738;49.890;5.930;2023-07-02T17:11:03;19.33;;;8.55;;
49840;SDS011;35738;49.890;5.930;2023-07-02T17:13:31;22.73;;;8.85;;
49840;SDS011;35738;49.890;5.930;2023-07-02T17:15:59;19.15;;;8.88;;
49840;SDS011;35738;49.890;5.930;2023-07-02T17:18:27;19.38;;;9.23;;
49840;SDS011;35738;49.890;5.930;2023-07-02T17:20:55;18.33;;;8.80;;
49840;SDS011;35738;49.890;5.930;2023-07-02T17:23:22;19.27;;;9.02;;
49840;SDS011;35738;49.890;5.930;2023-07-02T17:25:50;19.23;;;8.65;;